createdAt,value
2017-08-29T00:00:28.309Z,10.90
2017-08-29T00:01:25.546Z,10.90
2017-08-29T00:02:22.789Z,11.00
2017-08-29T00:03:20.049Z,13.80
2017-08-29T00:04:17.270Z,12.80
2017-08-29T00:05:14.542Z,10.40
2017-08-29T00:06:11.778Z,11.50
2017-08-29T00:07:09.037Z,11.20
2017-08-29T00:08:06.277Z,12.40
2017-08-29T00:09:03.882Z,15.00
2017-08-29T00:10:01.109Z,13.90
2017-08-29T00:10:58.374Z,17.60
2017-08-29T00:11:55.607Z,10.70
2017-08-29T00:12:52.897Z,13.00
2017-08-29T00:13:50.104Z,12.40
2017-08-29T00:14:47.646Z,10.20
2017-08-29T00:15:45.297Z,12.80
2017-08-29T00:16:42.557Z,9.50
2017-08-29T00:17:39.805Z,13.60
2017-08-29T00:18:37.049Z,11.00
2017-08-29T00:19:34.297Z,11.30
2017-08-29T00:20:31.598Z,14.80
2017-08-29T00:21:28.815Z,13.10
2017-08-29T00:22:26.107Z,11.30
2017-08-29T00:23:23.365Z,10.20
2017-08-29T00:24:20.628Z,10.00
2017-08-29T00:25:17.877Z,10.80
2017-08-29T00:26:15.147Z,9.50
2017-08-29T00:27:12.387Z,12.40
2017-08-29T00:28:09.653Z,10.40
2017-08-29T00:29:06.874Z,11.50
2017-08-29T00:30:04.134Z,10.40
2017-08-29T00:31:01.366Z,10.40
2017-08-29T00:31:58.619Z,10.50
2017-08-29T00:32:55.877Z,12.30
2017-08-29T00:33:53.122Z,10.50
2017-08-29T00:34:50.421Z,12.20
2017-08-29T00:35:47.663Z,12.10
2017-08-29T00:36:44.895Z,11.30
2017-08-29T00:37:42.148Z,11.30
2017-08-29T00:38:39.388Z,11.10
2017-08-29T00:39:36.633Z,11.80
2017-08-29T00:40:33.857Z,12.40
2017-08-29T00:41:31.114Z,10.80
2017-08-29T00:42:28.354Z,10.30
2017-08-29T00:43:25.618Z,13.60
2017-08-29T00:44:22.866Z,12.00
2017-08-29T00:45:20.150Z,18.10
2017-08-29T00:46:17.345Z,10.90
2017-08-29T00:47:14.574Z,10.50
2017-08-29T00:48:11.793Z,10.40
2017-08-29T00:49:09.046Z,14.00
2017-08-29T00:50:06.272Z,11.60
2017-08-29T00:51:03.518Z,10.10
2017-08-29T00:52:00.762Z,11.80
2017-08-29T00:52:58.037Z,15.00
2017-08-29T00:53:55.264Z,12.10
2017-08-29T00:54:52.514Z,11.70
2017-08-29T00:55:49.726Z,11.00
2017-08-29T00:56:47.042Z,11.30
2017-08-29T00:57:44.274Z,11.40
2017-08-29T00:58:41.593Z,12.40
2017-08-29T00:59:38.821Z,10.80
2017-08-29T01:00:36.053Z,14.90
2017-08-29T01:01:33.276Z,11.90
2017-08-29T01:02:30.529Z,11.50
2017-08-29T01:03:27.755Z,12.40
2017-08-29T01:04:25.034Z,10.60
2017-08-29T01:05:22.261Z,9.70
2017-08-29T01:06:19.525Z,10.30
2017-08-29T01:07:16.752Z,10.40
2017-08-29T01:08:13.998Z,10.50
2017-08-29T01:09:11.245Z,11.50
2017-08-29T01:10:08.493Z,11.80
2017-08-29T01:11:05.721Z,11.20
2017-08-29T01:12:05.017Z,11.20
2017-08-29T01:13:02.256Z,12.30
2017-08-29T01:13:59.490Z,10.20
2017-08-29T01:14:56.749Z,10.20
2017-08-29T01:15:54.016Z,9.60
2017-08-29T01:16:53.346Z,10.80
2017-08-29T01:17:50.601Z,11.60
2017-08-29T01:18:47.825Z,9.60
2017-08-29T01:19:45.086Z,9.70
2017-08-29T01:20:42.310Z,12.70
2017-08-29T01:21:39.553Z,12.00
2017-08-29T01:22:36.777Z,13.30
2017-08-29T01:23:34.019Z,10.30
2017-08-29T01:24:31.277Z,12.60
2017-08-29T01:25:28.526Z,10.90
2017-08-29T01:26:25.811Z,10.50
2017-08-29T01:27:23.274Z,10.50
2017-08-29T01:28:20.497Z,10.60
2017-08-29T01:29:17.773Z,9.90
2017-08-29T01:30:15.002Z,10.60
2017-08-29T01:31:12.293Z,11.50
2017-08-29T01:32:09.519Z,9.80
2017-08-29T01:33:06.796Z,12.30
2017-08-29T01:34:04.001Z,11.20
2017-08-29T01:35:01.266Z,10.70
2017-08-29T01:35:58.513Z,10.10
2017-08-29T01:36:55.781Z,16.70
2017-08-29T01:37:52.995Z,11.30
2017-08-29T01:38:50.242Z,10.70
2017-08-29T01:39:47.481Z,10.80
2017-08-29T01:40:44.745Z,10.30
2017-08-29T01:41:41.985Z,12.30
2017-08-29T01:42:39.253Z,11.30
2017-08-29T01:43:36.507Z,11.70
2017-08-29T01:44:33.755Z,9.80
2017-08-29T01:45:30.998Z,12.40
2017-08-29T01:46:28.278Z,9.70
2017-08-29T01:47:25.530Z,11.80
2017-08-29T01:48:22.793Z,10.00
2017-08-29T01:49:20.009Z,10.60
2017-08-29T01:50:17.282Z,10.60
2017-08-29T01:51:14.513Z,14.00
2017-08-29T01:52:11.768Z,12.90
2017-08-29T01:53:08.997Z,10.00
2017-08-29T01:54:06.275Z,10.30
2017-08-29T01:55:03.514Z,11.70
2017-08-29T01:56:00.782Z,10.50
2017-08-29T01:56:58.031Z,12.20
2017-08-29T01:57:55.306Z,13.00
2017-08-29T01:58:52.533Z,11.50
2017-08-29T01:59:49.772Z,9.70
2017-08-29T02:00:47.005Z,10.70
2017-08-29T02:01:44.265Z,9.60
2017-08-29T02:02:41.514Z,11.50
2017-08-29T02:03:38.777Z,11.80
2017-08-29T02:04:36.005Z,12.80
2017-08-29T02:05:33.282Z,10.90
2017-08-29T02:06:30.521Z,10.50
2017-08-29T02:07:27.781Z,9.60
2017-08-29T02:08:25.021Z,10.10
2017-08-29T02:09:22.308Z,9.80
2017-08-29T02:10:19.549Z,11.80
2017-08-29T02:11:16.834Z,12.10
2017-08-29T02:12:14.064Z,11.40
2017-08-29T02:13:11.342Z,10.50
2017-08-29T02:14:08.581Z,11.40
2017-08-29T02:15:05.838Z,11.80
2017-08-29T02:16:03.085Z,11.50
2017-08-29T02:17:00.343Z,13.80
2017-08-29T02:17:57.590Z,11.70
2017-08-29T02:18:54.841Z,11.20
2017-08-29T02:19:52.070Z,10.80
2017-08-29T02:20:49.345Z,12.10
2017-08-29T02:21:46.598Z,20.00
2017-08-29T02:22:43.861Z,10.90
2017-08-29T02:23:41.092Z,10.70
2017-08-29T02:24:38.369Z,11.20
2017-08-29T02:25:35.601Z,9.60
2017-08-29T02:26:32.872Z,10.90
2017-08-29T02:27:30.106Z,9.80
2017-08-29T02:28:27.362Z,10.90
2017-08-29T02:29:24.573Z,11.10
2017-08-29T02:30:21.877Z,10.70
2017-08-29T02:31:19.958Z,14.10
2017-08-29T02:32:17.246Z,10.90
2017-08-29T02:33:14.606Z,10.60
2017-08-29T02:34:11.847Z,11.20
2017-08-29T02:35:09.081Z,10.30
2017-08-29T02:36:06.347Z,10.50
2017-08-29T02:37:03.602Z,12.40
2017-08-29T02:38:00.865Z,17.40
2017-08-29T02:38:58.098Z,9.30
2017-08-29T02:39:55.358Z,10.40
2017-08-29T02:40:52.610Z,10.10
2017-08-29T02:41:49.883Z,10.70
2017-08-29T02:42:47.110Z,12.20
2017-08-29T02:43:44.356Z,14.80
2017-08-29T02:44:41.579Z,10.90
2017-08-29T02:45:38.833Z,12.40
2017-08-29T02:46:36.262Z,14.00
2017-08-29T02:47:33.529Z,10.10
2017-08-29T02:48:30.762Z,8.90
2017-08-29T02:49:28.010Z,9.40
2017-08-29T02:50:25.253Z,9.90
2017-08-29T02:51:22.509Z,9.10
2017-08-29T02:52:19.738Z,10.00
2017-08-29T02:53:16.995Z,15.20
2017-08-29T02:54:14.222Z,9.90
2017-08-29T02:55:11.479Z,10.20
2017-08-29T02:56:08.729Z,10.10
2017-08-29T02:57:06.017Z,11.00
2017-08-29T02:58:03.261Z,10.40
2017-08-29T02:59:00.516Z,9.50
2017-08-29T02:59:57.753Z,15.00
2017-08-29T03:00:55.016Z,13.40
2017-08-29T03:01:52.266Z,11.10
2017-08-29T03:02:49.515Z,10.50
2017-08-29T03:03:46.728Z,10.60
2017-08-29T03:04:43.980Z,9.20
2017-08-29T03:05:41.222Z,10.60
2017-08-29T03:06:38.481Z,10.20
2017-08-29T03:07:35.731Z,11.50
2017-08-29T03:08:33.081Z,12.30
2017-08-29T03:09:30.310Z,10.00
2017-08-29T03:10:27.578Z,11.20
2017-08-29T03:11:24.809Z,11.50
2017-08-29T03:12:22.076Z,15.60
2017-08-29T03:13:19.313Z,10.80
2017-08-29T03:14:18.608Z,11.10
2017-08-29T03:15:17.905Z,13.80
2017-08-29T03:16:15.186Z,10.80
2017-08-29T03:17:12.505Z,10.00
2017-08-29T03:18:09.771Z,10.10
2017-08-29T03:19:07.014Z,14.40
2017-08-29T03:20:04.257Z,8.80
2017-08-29T03:21:01.496Z,11.20
2017-08-29T03:21:58.747Z,10.00
2017-08-29T03:22:56.036Z,11.20
2017-08-29T03:23:53.297Z,10.70
2017-08-29T03:24:50.533Z,9.90
2017-08-29T03:25:47.801Z,11.30
2017-08-29T03:26:45.053Z,12.70
2017-08-29T03:27:42.341Z,10.40
2017-08-29T03:28:39.569Z,10.30
2017-08-29T03:29:36.824Z,9.00
2017-08-29T03:30:34.050Z,9.30
2017-08-29T03:31:31.316Z,15.20
2017-08-29T03:32:28.649Z,12.00
2017-08-29T03:33:26.120Z,9.80
2017-08-29T03:34:23.491Z,9.80
2017-08-29T03:35:20.808Z,9.60
2017-08-29T03:36:18.065Z,9.10
2017-08-29T03:37:15.349Z,10.60
2017-08-29T03:38:12.625Z,10.10
2017-08-29T03:39:09.905Z,13.80
2017-08-29T03:40:07.146Z,12.80
2017-08-29T03:41:04.409Z,11.30
2017-08-29T03:42:01.649Z,14.30
2017-08-29T03:42:58.944Z,11.10
2017-08-29T03:43:56.200Z,11.60
2017-08-29T03:44:53.457Z,9.90
2017-08-29T03:45:50.699Z,10.50
2017-08-29T03:46:48.037Z,9.70
2017-08-29T03:47:45.314Z,11.20
2017-08-29T03:48:42.596Z,9.80
2017-08-29T03:49:39.853Z,10.40
2017-08-29T03:50:37.114Z,10.40
2017-08-29T03:51:34.397Z,10.30
2017-08-29T03:52:31.677Z,11.60
2017-08-29T03:53:28.930Z,10.00
2017-08-29T03:54:26.182Z,10.30
2017-08-29T03:55:23.413Z,11.70
2017-08-29T03:56:20.697Z,13.10
2017-08-29T03:57:17.935Z,10.60
2017-08-29T03:58:15.229Z,10.80
2017-08-29T03:59:12.481Z,11.00
2017-08-29T04:00:09.740Z,9.50
2017-08-29T04:01:07.054Z,10.10
2017-08-29T04:02:04.327Z,11.80
2017-08-29T04:03:01.598Z,9.70
2017-08-29T04:03:58.869Z,12.00
2017-08-29T04:04:56.245Z,10.60
2017-08-29T04:05:53.528Z,9.50
2017-08-29T04:06:50.781Z,9.70
2017-08-29T04:07:48.025Z,10.50
2017-08-29T04:08:45.273Z,14.10
2017-08-29T04:09:42.537Z,10.20
2017-08-29T04:10:39.793Z,9.20
2017-08-29T04:11:37.042Z,9.40
2017-08-29T04:12:34.270Z,10.30
2017-08-29T04:13:31.551Z,10.90
2017-08-29T04:14:28.805Z,9.90
2017-08-29T04:15:26.060Z,9.50
2017-08-29T04:16:23.298Z,13.50
2017-08-29T04:17:20.569Z,10.40
2017-08-29T04:18:17.813Z,11.10
2017-08-29T04:19:15.085Z,10.60
2017-08-29T04:20:12.321Z,10.70
2017-08-29T04:21:09.581Z,11.00
2017-08-29T04:22:06.812Z,9.50
2017-08-29T04:23:04.084Z,10.20
2017-08-29T04:24:01.349Z,11.10
2017-08-29T04:24:58.609Z,9.80
2017-08-29T04:25:55.912Z,10.20
2017-08-29T04:26:53.620Z,10.90
2017-08-29T04:27:50.874Z,10.70
2017-08-29T04:28:48.182Z,9.70
2017-08-29T04:29:45.417Z,9.10
2017-08-29T04:30:42.908Z,12.30
2017-08-29T04:31:40.155Z,10.70
2017-08-29T04:32:37.434Z,9.60
2017-08-29T04:33:34.683Z,10.60
2017-08-29T04:34:31.977Z,10.10
2017-08-29T04:35:29.209Z,9.50
2017-08-29T04:36:26.469Z,10.20
2017-08-29T04:37:23.721Z,12.70
2017-08-29T04:38:20.994Z,9.90
2017-08-29T04:39:18.250Z,10.10
2017-08-29T04:40:15.510Z,12.30
2017-08-29T04:41:12.783Z,10.70
2017-08-29T04:42:10.045Z,10.00
2017-08-29T04:43:07.277Z,11.20
2017-08-29T04:44:04.529Z,9.20
2017-08-29T04:45:01.782Z,11.90
2017-08-29T04:45:59.046Z,10.50
2017-08-29T04:46:56.517Z,10.40
2017-08-29T04:47:54.047Z,9.90
2017-08-29T04:48:51.298Z,10.50
2017-08-29T04:49:48.597Z,11.80
2017-08-29T04:50:45.850Z,9.90
2017-08-29T04:51:43.130Z,10.30
2017-08-29T04:52:40.378Z,9.40
2017-08-29T04:53:37.654Z,11.30
2017-08-29T04:54:34.917Z,9.80
2017-08-29T04:55:32.202Z,14.30
2017-08-29T04:56:29.457Z,11.20
2017-08-29T04:57:26.736Z,9.70
2017-08-29T04:58:24.338Z,9.40
2017-08-29T04:59:21.626Z,15.50
2017-08-29T05:00:18.887Z,9.90
2017-08-29T05:01:16.158Z,11.40
2017-08-29T05:02:13.419Z,11.00
2017-08-29T05:03:10.681Z,9.80
2017-08-29T05:04:07.953Z,10.50
2017-08-29T05:05:05.278Z,10.60
2017-08-29T05:06:02.534Z,10.80
2017-08-29T05:06:59.809Z,10.90
2017-08-29T05:07:57.076Z,16.80
2017-08-29T05:08:54.354Z,16.80
2017-08-29T05:09:51.613Z,10.20
2017-08-29T05:10:48.919Z,11.60
2017-08-29T05:11:46.180Z,15.30
2017-08-29T05:12:43.485Z,10.30
2017-08-29T05:13:40.776Z,9.30
2017-08-29T05:14:38.052Z,10.80
2017-08-29T05:15:35.337Z,9.90
2017-08-29T05:16:36.581Z,10.60
2017-08-29T05:17:37.818Z,13.50
2017-08-29T05:18:39.042Z,10.70
2017-08-29T05:19:40.273Z,10.00
2017-08-29T05:20:41.550Z,11.50
2017-08-29T05:21:42.773Z,15.80
2017-08-29T05:22:43.996Z,11.30
2017-08-29T05:23:45.341Z,11.20
2017-08-29T05:24:46.613Z,11.10
2017-08-29T05:25:47.995Z,11.30
2017-08-29T05:26:49.241Z,10.10
2017-08-29T05:27:50.468Z,10.70
2017-08-29T05:28:51.790Z,15.10
2017-08-29T05:29:53.018Z,10.40
2017-08-29T05:30:54.249Z,10.20
2017-08-29T05:31:55.479Z,11.20
2017-08-29T05:32:56.704Z,10.50
2017-08-29T05:33:57.926Z,12.00
2017-08-29T05:34:59.150Z,11.30
2017-08-29T05:36:00.394Z,9.80
2017-08-29T05:37:01.605Z,12.10
2017-08-29T05:38:02.863Z,11.30
2017-08-29T05:39:04.096Z,11.70
2017-08-29T05:40:05.318Z,11.10
2017-08-29T05:41:06.562Z,10.80
2017-08-29T05:42:07.763Z,11.00
2017-08-29T05:43:08.966Z,13.10
2017-08-29T05:44:10.178Z,12.90
2017-08-29T05:45:11.438Z,12.30
2017-08-29T05:46:12.696Z,11.10
2017-08-29T05:47:13.941Z,11.10
2017-08-29T05:48:15.165Z,11.80
2017-08-29T05:49:16.389Z,12.90
2017-08-29T05:50:17.594Z,11.50
2017-08-29T05:51:18.839Z,12.00
2017-08-29T05:52:20.066Z,10.40
2017-08-29T05:53:21.258Z,12.10
2017-08-29T05:54:22.466Z,11.10
2017-08-29T05:55:23.678Z,24.30
2017-08-29T05:56:24.893Z,14.90
2017-08-29T05:57:26.110Z,13.00
2017-08-29T05:58:27.327Z,13.90
2017-08-29T05:59:28.542Z,14.70
2017-08-29T06:00:29.753Z,17.70
2017-08-29T06:01:30.990Z,18.50
2017-08-29T06:02:32.215Z,16.80
2017-08-29T06:03:33.451Z,13.30
2017-08-29T06:04:34.669Z,13.20
2017-08-29T06:05:35.878Z,13.70
2017-08-29T06:06:37.101Z,18.00
2017-08-29T06:07:38.321Z,13.20
2017-08-29T06:08:39.600Z,15.60
2017-08-29T06:09:40.822Z,15.70
2017-08-29T06:10:42.051Z,17.10
2017-08-29T06:11:43.318Z,14.70
2017-08-29T06:12:44.530Z,12.50
2017-08-29T06:13:45.739Z,14.10
2017-08-29T06:14:46.953Z,12.60
2017-08-29T06:15:48.170Z,13.40
2017-08-29T06:16:49.406Z,15.00
2017-08-29T06:17:50.625Z,13.60
2017-08-29T06:18:51.863Z,17.00
2017-08-29T06:19:53.117Z,13.00
2017-08-29T06:20:54.327Z,20.10
2017-08-29T06:21:55.558Z,14.00
2017-08-29T06:22:56.780Z,17.60
2017-08-29T06:23:57.982Z,15.90
2017-08-29T06:24:59.189Z,15.20
2017-08-29T06:26:00.419Z,15.90
2017-08-29T06:27:01.670Z,16.00
2017-08-29T06:28:02.897Z,16.30
2017-08-29T06:29:04.118Z,14.40
2017-08-29T06:30:05.330Z,16.80
2017-08-29T06:31:06.534Z,20.90
2017-08-29T06:32:07.762Z,14.00
2017-08-29T06:33:08.970Z,14.70
2017-08-29T06:34:10.184Z,17.40
2017-08-29T06:35:11.398Z,16.30
2017-08-29T06:36:12.629Z,15.40
2017-08-29T06:37:13.871Z,15.90
2017-08-29T06:38:15.101Z,17.20
2017-08-29T06:39:16.309Z,16.80
2017-08-29T06:40:17.519Z,15.30
2017-08-29T06:41:18.730Z,18.30
2017-08-29T06:42:19.964Z,19.60
2017-08-29T06:43:21.186Z,16.60
2017-08-29T06:44:22.389Z,17.70
2017-08-29T06:45:23.590Z,17.60
2017-08-29T06:46:24.810Z,17.70
2017-08-29T06:47:26.041Z,20.60
2017-08-29T06:48:27.255Z,25.90
2017-08-29T06:49:30.538Z,18.80
2017-08-29T06:50:31.745Z,21.10
2017-08-29T06:51:32.958Z,20.90
2017-08-29T06:52:34.184Z,19.20
2017-08-29T06:53:35.389Z,24.40
2017-08-29T06:54:36.585Z,20.40
2017-08-29T06:55:37.793Z,19.40
2017-08-29T06:56:39.001Z,21.50
2017-08-29T06:57:40.238Z,22.40
2017-08-29T06:58:41.506Z,25.90
2017-08-29T06:59:42.766Z,22.40
2017-08-29T07:00:43.977Z,23.70
2017-08-29T07:01:45.185Z,19.10
2017-08-29T07:02:46.431Z,19.10
2017-08-29T07:03:47.814Z,18.60
2017-08-29T07:04:49.350Z,18.20
2017-08-29T07:05:50.557Z,18.60
2017-08-29T07:06:52.178Z,19.70
2017-08-29T07:07:53.652Z,20.60
2017-08-29T07:08:54.845Z,21.90
2017-08-29T07:09:56.077Z,23.40
2017-08-29T07:10:57.281Z,17.90
2017-08-29T07:11:58.494Z,24.80
2017-08-29T07:12:59.733Z,19.60
2017-08-29T07:14:03.005Z,22.00
2017-08-29T07:15:04.282Z,20.00
2017-08-29T07:16:05.545Z,25.50
2017-08-29T07:17:08.818Z,22.40
2017-08-29T07:18:10.053Z,24.60
2017-08-29T07:19:11.271Z,22.50
2017-08-29T07:20:12.488Z,23.40
2017-08-29T07:21:13.697Z,25.20
2017-08-29T07:22:14.929Z,24.60
2017-08-29T07:23:16.162Z,20.50
2017-08-29T07:24:17.361Z,25.20
2017-08-29T07:25:18.567Z,25.80
2017-08-29T07:26:19.823Z,22.40
2017-08-29T07:27:21.042Z,25.50
2017-08-29T07:28:22.283Z,26.20
2017-08-29T07:29:23.493Z,25.20
2017-08-29T07:30:24.709Z,24.50
2017-08-29T07:31:25.942Z,27.40
2017-08-29T07:32:27.153Z,23.90
2017-08-29T07:33:28.398Z,25.20
2017-08-29T07:34:29.723Z,24.90
2017-08-29T07:35:30.979Z,24.50
2017-08-29T07:36:32.181Z,25.00
2017-08-29T07:37:33.425Z,25.50
2017-08-29T07:38:34.673Z,30.70
2017-08-29T07:39:35.917Z,24.10
2017-08-29T07:40:37.122Z,20.90
2017-08-29T07:41:38.334Z,23.50
2017-08-29T07:42:39.547Z,25.00
2017-08-29T07:43:40.785Z,26.00
2017-08-29T07:44:42.009Z,23.00
2017-08-29T07:45:43.221Z,28.80
2017-08-29T07:46:44.417Z,34.60
2017-08-29T07:47:45.654Z,25.40
2017-08-29T07:48:46.886Z,26.20
2017-08-29T07:49:48.079Z,23.90
2017-08-29T07:50:49.331Z,24.70
2017-08-29T07:51:50.538Z,25.20
2017-08-29T07:52:51.761Z,26.80
2017-08-29T07:53:53.002Z,26.20
2017-08-29T07:54:54.226Z,28.70
2017-08-29T07:55:55.506Z,27.90
2017-08-29T07:56:56.713Z,30.80
2017-08-29T07:57:57.933Z,30.50
2017-08-29T07:58:59.170Z,27.90
2017-08-29T08:00:00.382Z,24.80
2017-08-29T08:01:01.602Z,34.90
2017-08-29T08:02:02.821Z,26.00
2017-08-29T08:03:04.041Z,27.10
2017-08-29T08:04:05.283Z,28.30
2017-08-29T08:05:06.559Z,34.30
2017-08-29T08:06:07.777Z,29.70
2017-08-29T08:07:08.997Z,27.50
2017-08-29T08:08:10.205Z,29.30
2017-08-29T08:09:11.425Z,30.80
2017-08-29T08:10:12.658Z,30.80
2017-08-29T08:11:15.925Z,31.90
2017-08-29T08:12:17.145Z,31.80
2017-08-29T08:13:20.405Z,28.20
2017-08-29T08:14:23.691Z,36.30
2017-08-29T08:15:26.964Z,36.20
2017-08-29T08:16:28.210Z,29.30
2017-08-29T08:17:29.455Z,34.50
2017-08-29T08:18:30.682Z,30.20
2017-08-29T08:19:31.917Z,33.40
2017-08-29T08:20:33.150Z,34.60
2017-08-29T08:21:34.366Z,32.60
2017-08-29T08:22:35.577Z,33.80
2017-08-29T08:23:36.802Z,29.00
2017-08-29T08:24:38.029Z,29.60
2017-08-29T08:25:39.237Z,30.90
2017-08-29T08:26:40.458Z,28.60
2017-08-29T08:27:41.677Z,27.70
2017-08-29T08:28:42.906Z,31.00
2017-08-29T08:29:44.156Z,25.90
2017-08-29T08:30:45.366Z,24.70
2017-08-29T08:31:46.591Z,36.80
2017-08-29T08:32:47.805Z,27.00
2017-08-29T08:33:49.022Z,29.40
2017-08-29T08:34:50.277Z,28.20
2017-08-29T08:35:51.519Z,32.40
2017-08-29T08:36:52.746Z,32.90
2017-08-29T08:37:53.950Z,27.70
2017-08-29T08:38:55.173Z,27.90
2017-08-29T08:39:56.413Z,27.50
2017-08-29T08:40:57.633Z,41.80
2017-08-29T08:41:58.870Z,26.20
2017-08-29T08:43:00.081Z,30.20
2017-08-29T08:44:01.456Z,27.60
2017-08-29T08:45:02.749Z,30.70
2017-08-29T08:46:04.027Z,31.70
2017-08-29T08:47:05.307Z,33.90
2017-08-29T08:48:06.541Z,38.10
2017-08-29T08:49:07.769Z,31.50
2017-08-29T08:50:09.029Z,31.10
2017-08-29T08:51:10.270Z,36.70
2017-08-29T08:52:11.501Z,35.90
2017-08-29T08:53:12.730Z,31.00
2017-08-29T08:54:13.942Z,31.50
2017-08-29T08:55:15.168Z,26.40
2017-08-29T08:56:16.368Z,24.40
2017-08-29T08:57:17.582Z,31.00
2017-08-29T08:58:18.814Z,29.70
2017-08-29T08:59:20.052Z,27.50
2017-08-29T09:00:21.317Z,29.70
2017-08-29T09:01:22.541Z,27.70
2017-08-29T09:02:23.753Z,25.70
2017-08-29T09:03:24.958Z,24.20
2017-08-29T09:04:26.166Z,27.50
2017-08-29T09:05:27.489Z,26.90
2017-08-29T09:06:28.710Z,25.30
2017-08-29T09:07:29.937Z,27.60
2017-08-29T09:08:31.149Z,25.00
2017-08-29T09:09:32.380Z,26.10
2017-08-29T09:10:33.601Z,22.40
2017-08-29T09:11:34.826Z,24.70
2017-08-29T09:12:36.035Z,27.40
2017-08-29T09:13:37.282Z,25.60
2017-08-29T09:14:38.541Z,21.50
2017-08-29T09:15:39.817Z,22.00
2017-08-29T09:16:41.137Z,25.30
2017-08-29T09:17:42.441Z,21.20
2017-08-29T09:18:43.661Z,21.80
2017-08-29T09:19:44.923Z,17.50
2017-08-29T09:20:46.163Z,19.10
2017-08-29T09:21:47.425Z,18.00
2017-08-29T09:22:48.754Z,18.30
2017-08-29T09:23:49.986Z,17.40
2017-08-29T09:24:51.217Z,14.40
2017-08-29T09:25:52.516Z,16.70
2017-08-29T09:26:53.819Z,16.80
2017-08-29T09:27:55.044Z,15.40
2017-08-29T09:28:56.271Z,16.00
2017-08-29T09:29:57.647Z,17.70
2017-08-29T09:30:58.929Z,13.90
2017-08-29T09:32:00.161Z,17.20
2017-08-29T09:33:01.357Z,17.00
2017-08-29T09:34:02.610Z,14.10
2017-08-29T09:35:03.837Z,13.50
2017-08-29T09:36:05.090Z,13.20
2017-08-29T09:37:06.296Z,12.50
2017-08-29T09:38:07.554Z,13.60
2017-08-29T09:39:08.792Z,13.40
2017-08-29T09:40:10.073Z,13.10
2017-08-29T09:41:11.322Z,16.90
2017-08-29T09:42:12.554Z,18.10
2017-08-29T09:43:13.775Z,18.00
2017-08-29T09:44:15.008Z,24.10
2017-08-29T09:45:16.232Z,18.30
2017-08-29T09:46:17.591Z,16.30
2017-08-29T09:47:18.818Z,13.80
2017-08-29T09:48:20.035Z,12.10
2017-08-29T09:49:21.253Z,12.20
2017-08-29T09:50:22.477Z,13.20
2017-08-29T09:51:23.714Z,12.30
2017-08-29T09:52:25.085Z,13.60
2017-08-29T09:53:26.539Z,14.70
2017-08-29T09:54:27.909Z,13.30
2017-08-29T09:55:29.127Z,12.60
2017-08-29T09:56:30.377Z,12.70
2017-08-29T09:57:31.597Z,11.60
2017-08-29T09:58:32.885Z,11.70
2017-08-29T09:59:36.219Z,11.00
2017-08-29T10:00:37.602Z,10.80
2017-08-29T10:01:38.891Z,10.10
2017-08-29T10:02:40.126Z,11.40
2017-08-29T10:03:41.346Z,11.60
2017-08-29T10:04:42.569Z,10.60
2017-08-29T10:05:43.768Z,10.90
2017-08-29T10:06:45.026Z,10.90
2017-08-29T10:07:46.235Z,12.80
2017-08-29T10:08:47.570Z,12.10
2017-08-29T10:09:48.789Z,12.80
2017-08-29T10:10:50.005Z,16.00
2017-08-29T10:11:51.257Z,17.30
2017-08-29T10:12:52.595Z,14.80
2017-08-29T10:13:54.062Z,13.90
2017-08-29T10:14:55.286Z,12.60
2017-08-29T10:15:56.509Z,12.00
2017-08-29T10:16:57.774Z,12.00
2017-08-29T10:17:58.980Z,11.00
2017-08-29T10:19:00.193Z,11.20
2017-08-29T10:20:01.533Z,12.80
2017-08-29T10:21:02.857Z,12.00
2017-08-29T10:22:04.086Z,12.70
2017-08-29T10:23:05.318Z,12.30
2017-08-29T10:24:06.574Z,12.10
2017-08-29T10:25:07.795Z,12.60
2017-08-29T10:26:09.014Z,12.30
2017-08-29T10:27:10.316Z,11.10
2017-08-29T10:28:11.613Z,10.60
2017-08-29T10:29:12.893Z,10.90
2017-08-29T10:30:14.093Z,12.60
2017-08-29T10:31:15.304Z,11.50
2017-08-29T10:32:16.533Z,13.80
2017-08-29T10:33:17.756Z,13.30
2017-08-29T10:34:19.061Z,13.50
2017-08-29T10:35:20.279Z,12.20
2017-08-29T10:36:21.575Z,12.50
2017-08-29T10:37:22.922Z,12.70
2017-08-29T10:38:24.146Z,16.30
2017-08-29T10:39:25.364Z,13.80
2017-08-29T10:40:26.582Z,13.40
2017-08-29T10:41:27.802Z,12.10
2017-08-29T10:42:29.045Z,12.80
2017-08-29T10:43:30.282Z,15.10
2017-08-29T10:44:31.506Z,13.40
2017-08-29T10:45:33.104Z,14.50
2017-08-29T10:46:34.313Z,16.20
2017-08-29T10:47:35.546Z,10.70
2017-08-29T10:48:36.810Z,10.80
2017-08-29T10:49:38.037Z,10.40
2017-08-29T10:50:39.249Z,9.90
2017-08-29T10:51:40.670Z,10.60
2017-08-29T10:52:42.011Z,10.50
2017-08-29T10:53:43.229Z,10.40
2017-08-29T10:54:44.442Z,10.20
2017-08-29T10:55:45.754Z,10.50
2017-08-29T10:56:47.174Z,10.20
2017-08-29T10:57:48.565Z,12.10
2017-08-29T10:58:49.834Z,10.50
2017-08-29T10:59:51.139Z,11.70
2017-08-29T11:00:52.413Z,9.30
2017-08-29T11:01:53.647Z,10.30
2017-08-29T11:02:54.889Z,9.50
2017-08-29T11:03:56.130Z,10.60
2017-08-29T11:04:57.341Z,10.80
2017-08-29T11:05:58.562Z,14.50
2017-08-29T11:06:59.797Z,9.70
2017-08-29T11:08:01.056Z,12.90
2017-08-29T11:09:02.285Z,10.90
2017-08-29T11:10:03.654Z,14.30
2017-08-29T11:11:04.885Z,9.80
2017-08-29T11:12:06.101Z,11.70
2017-08-29T11:13:07.413Z,13.60
2017-08-29T11:14:08.634Z,11.80
2017-08-29T11:15:09.846Z,10.80
2017-08-29T11:16:11.138Z,9.90
2017-08-29T11:17:12.365Z,14.40
2017-08-29T11:18:13.626Z,9.30
2017-08-29T11:19:14.879Z,9.90
2017-08-29T11:20:16.216Z,10.50
2017-08-29T11:21:17.473Z,9.40
2017-08-29T11:22:18.925Z,8.80
2017-08-29T11:23:20.198Z,9.30
2017-08-29T11:24:21.433Z,8.90
2017-08-29T11:25:22.693Z,9.60
2017-08-29T11:26:23.981Z,10.30
2017-08-29T11:27:27.443Z,9.40
2017-08-29T11:28:28.950Z,8.40
2017-08-29T11:29:30.193Z,8.80
2017-08-29T11:30:31.459Z,10.80
2017-08-29T11:31:32.917Z,8.70
2017-08-29T11:32:34.225Z,9.30
2017-08-29T11:33:35.521Z,8.50
2017-08-29T11:34:36.837Z,10.80
2017-08-29T11:35:38.242Z,9.10
2017-08-29T11:36:39.517Z,9.20
2017-08-29T11:37:42.769Z,11.70
2017-08-29T11:38:44.189Z,9.70
2017-08-29T11:39:45.478Z,7.90
2017-08-29T11:40:46.819Z,8.80
2017-08-29T11:41:48.136Z,8.90
2017-08-29T11:42:49.430Z,8.70
2017-08-29T11:43:50.752Z,8.70
2017-08-29T11:44:52.032Z,9.00
2017-08-29T11:45:53.481Z,9.70
2017-08-29T11:46:54.971Z,9.40
2017-08-29T11:47:56.297Z,8.00
2017-08-29T11:48:57.591Z,7.90
2017-08-29T11:49:58.887Z,8.50
2017-08-29T11:51:00.235Z,9.20
2017-08-29T11:52:01.558Z,8.90
2017-08-29T11:53:02.953Z,8.60
2017-08-29T11:54:04.353Z,8.10
2017-08-29T11:55:05.806Z,7.90
2017-08-29T11:56:07.090Z,8.30
2017-08-29T11:57:08.393Z,7.70
2017-08-29T11:58:09.714Z,8.10
2017-08-29T11:59:11.029Z,9.50
2017-08-29T12:00:12.420Z,7.30
2017-08-29T12:01:13.761Z,8.40
2017-08-29T12:02:17.139Z,7.60
2017-08-29T12:03:18.442Z,7.10
2017-08-29T12:04:21.739Z,7.70
2017-08-29T12:05:25.012Z,6.80
2017-08-29T12:06:26.274Z,8.30
2017-08-29T12:07:27.585Z,7.60
2017-08-29T12:08:28.892Z,7.50
2017-08-29T12:09:30.225Z,9.60
2017-08-29T12:10:31.490Z,7.60
2017-08-29T12:11:32.771Z,7.10
2017-08-29T12:12:34.021Z,8.10
2017-08-29T12:13:37.333Z,7.60
2017-08-29T12:14:38.609Z,7.70
2017-08-29T12:15:39.829Z,6.80
2017-08-29T12:16:41.043Z,8.40
2017-08-29T12:17:42.257Z,7.10
2017-08-29T12:18:43.475Z,6.90
2017-08-29T12:19:44.725Z,7.20
2017-08-29T12:20:45.974Z,6.80
2017-08-29T12:21:47.193Z,7.20
2017-08-29T12:22:48.410Z,12.80
2017-08-29T12:23:49.625Z,11.90
2017-08-29T12:24:50.871Z,6.70
2017-08-29T12:25:52.082Z,7.20
2017-08-29T12:26:53.327Z,6.40
2017-08-29T12:27:54.572Z,6.70
2017-08-29T12:28:55.844Z,7.10
2017-08-29T12:29:57.106Z,7.00
2017-08-29T12:30:58.321Z,6.60
2017-08-29T12:31:59.539Z,6.70
2017-08-29T12:33:00.839Z,7.60
2017-08-29T12:34:02.114Z,7.40
2017-08-29T12:35:03.411Z,6.70
2017-08-29T12:36:04.670Z,6.90
2017-08-29T12:37:05.879Z,6.70
2017-08-29T12:38:07.242Z,7.00
2017-08-29T12:39:08.613Z,7.90
2017-08-29T12:40:09.845Z,7.40
2017-08-29T12:41:11.076Z,6.60
2017-08-29T12:42:12.282Z,5.90
2017-08-29T12:43:13.506Z,7.40
2017-08-29T12:44:14.737Z,7.00
2017-08-29T12:45:16.014Z,5.60
2017-08-29T12:46:19.329Z,5.20
2017-08-29T12:47:20.689Z,11.10
2017-08-29T12:48:21.965Z,8.00
2017-08-29T12:49:23.170Z,5.60
2017-08-29T12:50:24.406Z,7.40
2017-08-29T12:51:25.701Z,6.70
2017-08-29T12:52:27.078Z,6.10